createdAt,value
2018-07-02T00:00:35.975Z,1006.15
2018-07-02T00:01:16.392Z,1006.13
2018-07-02T00:01:56.866Z,1006.13
2018-07-02T00:02:37.238Z,1006.13
2018-07-02T00:03:17.646Z,1006.12
2018-07-02T00:03:58.082Z,1006.09
2018-07-02T00:04:38.548Z,1006.06
2018-07-02T00:05:18.981Z,1006.07
2018-07-02T00:05:59.433Z,1006.04
2018-07-02T00:06:39.927Z,1006.06
2018-07-02T00:07:20.279Z,1006.06
2018-07-02T00:08:01.223Z,1006.07
2018-07-02T00:08:41.227Z,1006.06
2018-07-02T00:09:21.754Z,1006.09
2018-07-02T00:10:02.160Z,1006.06
2018-07-02T00:10:43.158Z,1006.07
2018-07-02T00:11:23.769Z,1006.07
2018-07-02T00:12:04.352Z,1006.08
2018-07-02T00:12:44.607Z,1006.05
2018-07-02T00:13:25.113Z,1006.09
2018-07-02T00:14:05.534Z,1006.06
2018-07-02T00:14:46.403Z,1006.07
2018-07-02T00:15:26.674Z,1006.09
2018-07-02T00:16:07.543Z,1006.06
2018-07-02T00:16:48.164Z,1006.11
2018-07-02T00:17:28.570Z,1006.08
2018-07-02T00:18:09.157Z,1006.12
2018-07-02T00:18:49.430Z,1006.1
2018-07-02T00:19:29.839Z,1006.13
2018-07-02T00:20:10.313Z,1006.09
2018-07-02T00:20:51.136Z,1006.09
2018-07-02T00:21:31.977Z,1006.12
2018-07-02T00:22:12.386Z,1006.11
2018-07-02T00:22:52.686Z,1006.06
2018-07-02T00:23:33.825Z,1006.02
2018-07-02T00:24:14.275Z,1006.06
2018-07-02T00:24:54.885Z,1006.06
2018-07-02T00:25:35.233Z,1006.05
2018-07-02T00:26:15.881Z,1006.04
2018-07-02T00:26:56.321Z,1006.09
2018-07-02T00:27:37.161Z,1006.04
2018-07-02T00:28:17.116Z,1006.01
2018-07-02T00:28:57.589Z,1006.02
2018-07-02T00:29:39.658Z,1005.94
2018-07-02T00:30:20.123Z,1006.01
2018-07-02T00:31:00.900Z,1006.04
2018-07-02T00:31:41.195Z,1006.07
2018-07-02T00:32:21.584Z,1006.06
2018-07-02T00:33:02.045Z,1006.06
2018-07-02T00:33:43.293Z,1006.05
2018-07-02T00:34:23.304Z,1006.11
2018-07-02T00:35:03.699Z,1006.07
2018-07-02T00:35:44.120Z,1006.08
2018-07-02T00:36:24.617Z,1006.06
2018-07-02T00:37:05.066Z,1006.01
2018-07-02T00:37:45.389Z,1006.09
2018-07-02T00:38:26.078Z,1006.03
2018-07-02T00:39:06.235Z,1006.01
2018-07-02T00:39:46.672Z,1006.01
2018-07-02T00:40:27.675Z,1005.99
2018-07-02T00:41:07.754Z,1005.99
2018-07-02T00:41:48.108Z,1006.01
2018-07-02T00:42:28.593Z,1006
2018-07-02T00:43:08.951Z,1005.96
2018-07-02T00:43:49.417Z,1005.98
2018-07-02T00:44:29.849Z,1005.98
2018-07-02T00:45:10.638Z,1006.03
2018-07-02T00:45:50.983Z,1005.98
2018-07-02T00:46:31.693Z,1005.95
2018-07-02T00:47:12.069Z,1006.01
2018-07-02T00:47:52.546Z,1005.97
2018-07-02T00:48:32.934Z,1006
2018-07-02T00:49:13.890Z,1005.96
2018-07-02T00:49:53.782Z,1005.92
2018-07-02T00:50:34.421Z,1005.92
2018-07-02T00:51:15.092Z,1005.94
2018-07-02T00:51:55.443Z,1005.9
2018-07-02T00:52:35.935Z,1005.91
2018-07-02T00:53:16.508Z,1005.93
2018-07-02T00:53:56.996Z,1005.9
2018-07-02T00:54:37.324Z,1005.93
2018-07-02T00:55:17.741Z,1005.91
2018-07-02T00:55:58.195Z,1005.94
2018-07-02T00:56:38.610Z,1005.97
2018-07-02T00:57:19.017Z,1005.96
2018-07-02T00:57:59.448Z,1005.98
2018-07-02T00:58:39.903Z,1005.99
2018-07-02T00:59:20.249Z,1006
2018-07-02T01:00:01.047Z,1005.97
2018-07-02T01:00:41.268Z,1005.97
2018-07-02T01:01:21.620Z,1005.97
2018-07-02T01:02:02.148Z,1005.98
2018-07-02T01:02:42.652Z,1005.97
2018-07-02T01:03:23.157Z,1005.94
2018-07-02T01:04:03.708Z,1005.94
2018-07-02T01:04:44.009Z,1005.97
2018-07-02T01:05:24.461Z,1005.93
2018-07-02T01:06:05.010Z,1005.93
2018-07-02T01:06:46.281Z,1005.92
2018-07-02T01:07:26.426Z,1005.9
2018-07-02T01:08:06.843Z,1005.92
2018-07-02T01:08:47.250Z,1005.92
2018-07-02T01:09:27.768Z,1005.86
2018-07-02T01:10:10.070Z,1005.92
2018-07-02T01:10:50.495Z,1005.9
2018-07-02T01:11:31.059Z,1005.91
2018-07-02T01:12:11.265Z,1005.95
2018-07-02T01:12:51.737Z,1005.91
2018-07-02T01:13:32.193Z,1005.88
2018-07-02T01:14:12.659Z,1005.93
2018-07-02T01:14:52.928Z,1005.92
2018-07-02T01:15:33.601Z,1005.91
2018-07-02T01:16:13.975Z,1005.92
2018-07-02T01:16:54.872Z,1005.95
2018-07-02T01:17:35.389Z,1005.92
2018-07-02T01:18:15.725Z,1005.94
2018-07-02T01:18:56.215Z,1005.9
2018-07-02T01:19:36.640Z,1005.93
2018-07-02T01:20:17.041Z,1005.94
2018-07-02T01:20:57.418Z,1005.95
2018-07-02T01:21:37.838Z,1005.95
2018-07-02T01:22:18.192Z,1005.94
2018-07-02T01:22:58.623Z,1005.92
2018-07-02T01:23:39.086Z,1005.92
2018-07-02T01:24:19.475Z,1005.95
2018-07-02T01:24:59.901Z,1005.98
2018-07-02T01:25:40.803Z,1005.94
2018-07-02T01:26:20.877Z,1005.96
2018-07-02T01:27:01.555Z,1005.97
2018-07-02T01:27:42.093Z,1005.95
2018-07-02T01:28:22.533Z,1005.95
2018-07-02T01:29:02.913Z,1005.95
2018-07-02T01:29:43.377Z,1005.95
2018-07-02T01:30:23.779Z,1005.98
2018-07-02T01:31:04.243Z,1005.96
2018-07-02T01:31:44.606Z,1005.95
2018-07-02T01:32:25.030Z,1005.96
2018-07-02T01:33:05.592Z,1005.98
2018-07-02T01:33:45.921Z,1005.99
2018-07-02T01:34:26.364Z,1005.97
2018-07-02T01:35:06.722Z,1005.97
2018-07-02T01:35:47.125Z,1005.98
2018-07-02T01:36:27.481Z,1006
2018-07-02T01:37:07.937Z,1005.96
2018-07-02T01:37:48.302Z,1005.94
2018-07-02T01:38:28.758Z,1005.95
2018-07-02T01:39:09.118Z,1005.97
2018-07-02T01:39:49.512Z,1006
2018-07-02T01:40:29.897Z,1005.99
2018-07-02T01:41:10.379Z,1006.02
2018-07-02T01:41:50.768Z,1006
2018-07-02T01:42:31.244Z,1005.99
2018-07-02T01:43:11.570Z,1006
2018-07-02T01:43:51.988Z,1006.03
2018-07-02T01:44:32.412Z,1006.03
2018-07-02T01:45:12.826Z,1006.03
2018-07-02T01:45:53.245Z,1005.99
2018-07-02T01:46:33.708Z,1006.05
2018-07-02T01:47:14.070Z,1005.98
2018-07-02T01:47:54.475Z,1006.04
2018-07-02T01:48:35.006Z,1006.01
2018-07-02T01:49:15.338Z,1006.07
2018-07-02T01:49:55.839Z,1006.09
2018-07-02T01:50:36.149Z,1006.05
2018-07-02T01:51:16.552Z,1006.1
2018-07-02T01:51:56.997Z,1006.09
2018-07-02T01:52:37.459Z,1006.09
2018-07-02T01:53:17.969Z,1006.1
2018-07-02T01:53:58.283Z,1006.13
2018-07-02T01:54:38.716Z,1006.14
2018-07-02T01:55:19.074Z,1006.14
2018-07-02T01:55:59.530Z,1006.17
2018-07-02T01:56:40.059Z,1006.18
2018-07-02T01:57:20.407Z,1006.13
2018-07-02T01:58:00.705Z,1006.13
2018-07-02T01:58:41.127Z,1006.13
2018-07-02T01:59:21.615Z,1006.21
2018-07-02T02:00:02.029Z,1006.17
2018-07-02T02:00:42.475Z,1006.2
2018-07-02T02:01:22.868Z,1006.14
2018-07-02T02:02:03.358Z,1006.15
2018-07-02T02:02:43.762Z,1006.13
2018-07-02T02:03:24.132Z,1006.14
2018-07-02T02:04:04.639Z,1006.14
2018-07-02T02:04:45.049Z,1006.13
2018-07-02T02:05:25.408Z,1006.13
2018-07-02T02:06:05.880Z,1006.13
2018-07-02T02:06:46.255Z,1006.13
2018-07-02T02:07:26.700Z,1006.13
2018-07-02T02:08:07.084Z,1006.11
2018-07-02T02:08:47.537Z,1006.07
2018-07-02T02:09:27.956Z,1006.11
2018-07-02T02:10:08.425Z,1006.11
2018-07-02T02:10:48.816Z,1006.07
2018-07-02T02:11:29.163Z,1006.1
2018-07-02T02:12:09.584Z,1006.04
2018-07-02T02:12:49.977Z,1006.06
2018-07-02T02:13:30.405Z,1006.11
2018-07-02T02:14:10.953Z,1006.07
2018-07-02T02:14:51.317Z,1006.04
2018-07-02T02:15:31.757Z,1006.07
2018-07-02T02:16:12.154Z,1006.03
2018-07-02T02:16:52.496Z,1006.06
2018-07-02T02:17:32.990Z,1006.02
2018-07-02T02:18:13.355Z,1006.06
2018-07-02T02:18:53.775Z,1006.04
2018-07-02T02:19:34.217Z,1006.06
2018-07-02T02:20:14.619Z,1006.1
2018-07-02T02:20:55.064Z,1006.06
2018-07-02T02:21:35.460Z,1006.06
2018-07-02T02:22:16.112Z,1006.1
2018-07-02T02:22:56.842Z,1006.09
2018-07-02T02:23:37.236Z,1006.07
2018-07-02T02:24:17.595Z,1006.12
2018-07-02T02:24:58.051Z,1006.1
2018-07-02T02:25:38.485Z,1006.09
2018-07-02T02:26:18.936Z,1006.12
2018-07-02T02:26:59.433Z,1006.11
2018-07-02T02:27:39.801Z,1006.11
2018-07-02T02:28:20.262Z,1006.11
2018-07-02T02:29:00.737Z,1006.08
2018-07-02T02:29:41.138Z,1006.09
2018-07-02T02:30:21.551Z,1006.08
2018-07-02T02:31:01.946Z,1006.11
2018-07-02T02:31:42.343Z,1006.09
2018-07-02T02:32:22.804Z,1006.09
2018-07-02T02:33:03.197Z,1006.1
2018-07-02T02:33:43.666Z,1006.09
2018-07-02T02:34:24.175Z,1006.06
2018-07-02T02:35:04.484Z,1006.05
2018-07-02T02:35:44.910Z,1006.06
2018-07-02T02:36:25.332Z,1006.08
2018-07-02T02:37:05.737Z,1006.06
2018-07-02T02:37:46.127Z,1006.08
2018-07-02T02:38:26.695Z,1006.07
2018-07-02T02:39:06.959Z,1006.05
2018-07-02T02:39:47.447Z,1006.09
2018-07-02T02:40:27.762Z,1006.08
2018-07-02T02:41:08.250Z,1006.08
2018-07-02T02:41:48.580Z,1006.08
2018-07-02T02:42:29.010Z,1006.09
2018-07-02T02:43:09.379Z,1006.04
2018-07-02T02:43:49.850Z,1006.07
2018-07-02T02:44:30.269Z,1006.06
2018-07-02T02:45:10.664Z,1006.07
2018-07-02T02:45:51.129Z,1006.06
2018-07-02T02:46:31.495Z,1006.08
2018-07-02T02:47:11.892Z,1006.02
2018-07-02T02:47:52.321Z,1006.06
2018-07-02T02:48:32.738Z,1006.02
2018-07-02T02:49:14.793Z,1006.01
2018-07-02T02:49:55.261Z,1005.98
2018-07-02T02:50:35.769Z,1006
2018-07-02T02:51:16.181Z,1006
2018-07-02T02:51:56.566Z,1005.99
2018-07-02T02:52:36.880Z,1005.98
2018-07-02T02:53:17.395Z,1005.93
2018-07-02T02:53:57.735Z,1005.95
2018-07-02T02:54:38.244Z,1005.96
2018-07-02T02:55:18.602Z,1005.94
2018-07-02T02:56:00.921Z,1005.95
2018-07-02T02:56:41.286Z,1005.94
2018-07-02T02:57:21.733Z,1005.95
2018-07-02T02:58:02.096Z,1005.95
2018-07-02T02:58:42.492Z,1005.96
2018-07-02T02:59:22.912Z,1005.93
2018-07-02T03:00:03.350Z,1005.92
2018-07-02T03:00:43.758Z,1005.94
2018-07-02T03:01:24.124Z,1005.93
2018-07-02T03:02:04.551Z,1005.93
2018-07-02T03:02:44.983Z,1005.96
2018-07-02T03:03:25.363Z,1005.91
2018-07-02T03:04:05.767Z,1005.94
2018-07-02T03:04:46.169Z,1005.89
2018-07-02T03:05:26.602Z,1005.94
2018-07-02T03:06:07.011Z,1005.9
2018-07-02T03:06:47.404Z,1005.93
2018-07-02T03:07:27.753Z,1005.9
2018-07-02T03:08:08.221Z,1005.91
2018-07-02T03:08:48.597Z,1005.95
2018-07-02T03:09:28.941Z,1005.93
2018-07-02T03:10:09.366Z,1005.91
2018-07-02T03:10:49.730Z,1005.93
2018-07-02T03:11:30.244Z,1005.93
2018-07-02T03:12:10.625Z,1005.93
2018-07-02T03:12:51.095Z,1005.92
2018-07-02T03:13:31.460Z,1005.94
2018-07-02T03:14:11.876Z,1005.9
2018-07-02T03:14:52.262Z,1005.9
2018-07-02T03:15:32.658Z,1005.92
2018-07-02T03:16:13.066Z,1005.9
2018-07-02T03:16:53.506Z,1005.88
2018-07-02T03:17:33.985Z,1005.91
2018-07-02T03:18:14.402Z,1005.91
2018-07-02T03:18:54.792Z,1005.91
2018-07-02T03:19:35.211Z,1005.95
2018-07-02T03:20:15.719Z,1005.94
2018-07-02T03:20:56.120Z,1005.93
2018-07-02T03:21:36.520Z,1005.94
2018-07-02T03:22:16.982Z,1005.94
2018-07-02T03:22:57.320Z,1005.93
2018-07-02T03:23:37.781Z,1005.97
2018-07-02T03:24:18.156Z,1005.94
2018-07-02T03:24:58.610Z,1005.94
2018-07-02T03:25:39.069Z,1005.93
2018-07-02T03:26:19.437Z,1005.94
2018-07-02T03:26:59.794Z,1005.96
2018-07-02T03:27:40.281Z,1005.98
2018-07-02T03:28:20.646Z,1005.99
2018-07-02T03:29:01.077Z,1006.01
2018-07-02T03:29:41.547Z,1006.02
2018-07-02T03:30:21.894Z,1006
2018-07-02T03:31:02.257Z,1006.02
2018-07-02T03:31:43.423Z,1006.08
2018-07-02T03:32:23.639Z,1006.07
2018-07-02T03:33:04.149Z,1006.12
2018-07-02T03:33:44.506Z,1006.1
2018-07-02T03:34:24.831Z,1006.1
2018-07-02T03:35:05.240Z,1006.1
2018-07-02T03:35:45.707Z,1006.14
2018-07-02T03:36:26.095Z,1006.13
2018-07-02T03:37:06.503Z,1006.14
2018-07-02T03:37:46.916Z,1006.18
2018-07-02T03:38:27.381Z,1006.21
2018-07-02T03:39:07.773Z,1006.16
2018-07-02T03:39:48.260Z,1006.2
2018-07-02T03:40:28.678Z,1006.19
2018-07-02T03:41:08.961Z,1006.19
2018-07-02T03:41:49.380Z,1006.2
2018-07-02T03:42:29.837Z,1006.23
2018-07-02T03:43:10.242Z,1006.24
2018-07-02T03:43:50.692Z,1006.23
2018-07-02T03:44:31.179Z,1006.3
2018-07-02T03:45:11.646Z,1006.26
2018-07-02T03:45:51.985Z,1006.24
2018-07-02T03:46:32.351Z,1006.28
2018-07-02T03:47:12.844Z,1006.26
2018-07-02T03:47:53.323Z,1006.25
2018-07-02T03:48:33.632Z,1006.26
2018-07-02T03:49:14.120Z,1006.26
2018-07-02T03:49:54.522Z,1006.22
2018-07-02T03:50:34.970Z,1006.22
2018-07-02T03:51:15.452Z,1006.17
2018-07-02T03:51:55.784Z,1006.21
2018-07-02T03:52:36.179Z,1006.18
2018-07-02T03:53:16.574Z,1006.2
2018-07-02T03:53:57.037Z,1006.19
2018-07-02T03:54:37.436Z,1006.2
2018-07-02T03:55:17.856Z,1006.18
2018-07-02T03:55:58.252Z,1006.22
2018-07-02T03:56:38.735Z,1006.21
2018-07-02T03:57:19.077Z,1006.17
2018-07-02T03:57:59.545Z,1006.19
2018-07-02T03:58:39.927Z,1006.21
2018-07-02T03:59:20.309Z,1006.21
2018-07-02T04:00:00.736Z,1006.17
2018-07-02T04:00:41.148Z,1006.17
2018-07-02T04:01:21.723Z,1006.17
2018-07-02T04:02:01.942Z,1006.21
2018-07-02T04:02:42.407Z,1006.18
2018-07-02T04:52:01.335Z,1006.44
2018-07-02T04:52:41.522Z,1006.44
2018-07-02T04:53:21.861Z,1006.43
2018-07-02T04:54:02.348Z,1006.46
2018-07-02T04:54:42.727Z,1006.44
2018-07-02T04:55:23.171Z,1006.41
2018-07-02T04:56:03.542Z,1006.46
2018-07-02T04:56:43.938Z,1006.49
2018-07-02T05:00:29.804Z,1006.55
2018-07-02T05:01:09.951Z,1006.53
2018-07-02T05:01:50.297Z,1006.55
2018-07-02T05:02:30.920Z,1006.56
2018-07-02T05:03:11.106Z,1006.54
2018-07-02T05:03:51.500Z,1006.48
2018-07-02T05:04:31.939Z,1006.47
2018-07-02T05:05:12.363Z,1006.47
2018-07-02T05:05:52.758Z,1006.48
2018-07-02T05:06:33.177Z,1006.44
2018-07-02T05:18:20.755Z,1006.47
2018-07-02T05:19:01.135Z,1006.48
2018-07-02T05:19:41.492Z,1006.47
2018-07-02T05:20:21.893Z,1006.45
2018-07-02T05:22:40.868Z,1006.51
2018-07-02T05:23:21.387Z,1006.52
2018-07-02T05:24:01.803Z,1006.51
2018-07-02T05:24:42.406Z,1006.45
2018-07-02T05:25:22.836Z,1006.46
2018-07-02T05:26:03.271Z,1006.44
2018-07-02T05:26:43.634Z,1006.46
2018-07-02T05:27:24.221Z,1006.46
2018-07-02T05:28:04.550Z,1006.4
2018-07-02T05:28:45.155Z,1006.38
2018-07-02T05:29:25.549Z,1006.4
2018-07-02T05:30:05.995Z,1006.39
2018-07-02T05:30:46.364Z,1006.43
2018-07-02T05:31:26.812Z,1006.43
2018-07-02T05:32:07.265Z,1006.44
2018-07-02T05:32:47.668Z,1006.44
2018-07-02T05:33:28.215Z,1006.48
2018-07-02T05:34:08.525Z,1006.45
2018-07-02T05:34:48.951Z,1006.44
2018-07-02T05:37:19.618Z,1006.46
2018-07-02T05:38:00.027Z,1006.44
2018-07-02T05:38:40.816Z,1006.43
2018-07-02T05:39:20.919Z,1006.42
2018-07-02T05:40:01.467Z,1006.43
2018-07-02T05:40:42.516Z,1006.41
2018-07-02T05:41:22.779Z,1006.39
2018-07-02T05:43:52.740Z,1006.36
2018-07-02T05:44:33.058Z,1006.41
2018-07-02T05:50:36.445Z,1006.5
2018-07-02T05:51:16.888Z,1006.52
2018-07-02T05:51:57.350Z,1006.5
2018-07-02T05:54:10.856Z,1006.5
2018-07-02T05:54:51.268Z,1006.49
2018-07-02T05:55:32.464Z,1006.5
2018-07-02T05:56:12.488Z,1006.47
2018-07-02T05:59:15.368Z,1006.44
2018-07-02T05:59:56.299Z,1006.44
2018-07-02T06:00:37.010Z,1006.42
2018-07-02T06:01:17.592Z,1006.41
2018-07-02T06:01:59.284Z,1006.42
2018-07-02T06:02:39.820Z,1006.45
2018-07-02T06:03:21.000Z,1006.47
2018-07-02T06:04:09.513Z,1006.49
2018-07-02T06:04:53.477Z,1006.52
2018-07-02T06:05:34.225Z,1006.52
2018-07-02T06:06:14.669Z,1006.54
2018-07-02T06:06:55.776Z,1006.56
2018-07-02T06:07:37.121Z,1006.57
2018-07-02T06:08:18.365Z,1006.55
2018-07-02T06:08:58.805Z,1006.58
2018-07-02T06:09:40.331Z,1006.59
2018-07-02T06:10:20.826Z,1006.57
2018-07-02T06:11:01.847Z,1006.5
2018-07-02T06:11:42.304Z,1006.6
2018-07-02T06:14:17.293Z,1006.54
2018-07-02T06:14:57.689Z,1006.57
2018-07-02T06:15:38.189Z,1006.54
2018-07-02T06:16:18.554Z,1006.52
2018-07-02T06:16:59.015Z,1006.5
2018-07-02T06:17:39.423Z,1006.49
2018-07-02T06:18:19.859Z,1006.53
2018-07-02T06:19:00.364Z,1006.51
2018-07-02T06:19:40.726Z,1006.52
2018-07-02T06:20:21.445Z,1006.63
2018-07-02T06:21:01.839Z,1006.53
2018-07-02T06:21:42.496Z,1006.51
2018-07-02T06:24:11.696Z,1006.57
2018-07-02T06:24:51.888Z,1006.57
2018-07-02T06:25:32.283Z,1006.54
2018-07-02T06:26:12.696Z,1006.54
2018-07-02T06:26:53.116Z,1006.52
2018-07-02T06:27:33.580Z,1006.53
2018-07-02T06:28:13.954Z,1006.53
2018-07-02T06:30:32.572Z,1006.49
2018-07-02T06:31:13.760Z,1006.54
2018-07-02T06:31:54.319Z,1006.58
2018-07-02T06:32:34.998Z,1006.55
2018-07-02T06:33:15.687Z,1006.57
2018-07-02T06:33:56.982Z,1006.6
2018-07-02T06:34:37.827Z,1006.54
2018-07-02T06:35:18.172Z,1006.57
2018-07-02T06:35:59.773Z,1006.55
2018-07-02T06:36:41.158Z,1006.56
2018-07-02T06:37:21.598Z,1006.55
2018-07-02T06:38:05.169Z,1006.61
2018-07-02T06:38:45.415Z,1006.55
2018-07-02T06:39:27.241Z,1006.48
2018-07-02T06:40:08.144Z,1006.53
2018-07-02T06:40:50.545Z,1006.54
2018-07-02T06:41:30.943Z,1006.6
2018-07-02T06:42:11.509Z,1006.65
2018-07-02T06:42:52.128Z,1006.64
2018-07-02T06:43:32.465Z,1006.69
2018-07-02T06:44:13.130Z,1006.7
2018-07-02T06:44:55.439Z,1006.72
2018-07-02T06:48:22.804Z,1006.78
2018-07-02T06:49:03.001Z,1006.77
2018-07-02T06:49:43.355Z,1006.73
2018-07-02T06:50:23.847Z,1006.76
2018-07-02T06:51:04.379Z,1006.77
2018-07-02T06:51:45.080Z,1006.75
2018-07-02T06:52:25.625Z,1006.73
2018-07-02T06:56:29.458Z,1006.68
2018-07-02T06:57:09.954Z,1006.74
2018-07-02T06:57:50.832Z,1006.73
2018-07-02T06:58:31.424Z,1006.74
2018-07-02T06:59:11.870Z,1006.7
2018-07-02T06:59:54.874Z,1006.73
2018-07-02T07:00:35.442Z,1006.71
2018-07-02T07:03:07.699Z,1006.73
2018-07-02T07:03:48.275Z,1006.74
2018-07-02T07:04:28.637Z,1006.74
2018-07-02T07:05:10.619Z,1006.74
2018-07-02T07:05:53.409Z,1006.82
2018-07-02T07:06:34.573Z,1006.78
2018-07-02T07:07:15.867Z,1006.78
2018-07-02T07:07:57.990Z,1006.84
2018-07-02T07:08:38.431Z,1006.77
2018-07-02T07:09:19.744Z,1006.79
2018-07-02T07:10:01.721Z,1006.78
2018-07-02T07:10:42.646Z,1006.77
2018-07-02T07:11:23.446Z,1006.79
2018-07-02T07:12:05.037Z,1006.76
2018-07-02T07:12:45.314Z,1006.75
2018-07-02T07:13:26.660Z,1006.73
2018-07-02T07:14:07.548Z,1006.74
2018-07-02T07:14:49.915Z,1006.73
2018-07-02T07:15:30.459Z,1006.71
2018-07-02T07:16:12.260Z,1006.72
2018-07-02T07:16:53.534Z,1006.77
2018-07-02T07:17:34.169Z,1006.76
2018-07-02T07:18:14.604Z,1006.79
2018-07-02T07:18:57.013Z,1006.81
2018-07-02T07:19:37.629Z,1006.83
2018-07-02T07:20:18.187Z,1006.81
2018-07-02T07:22:49.574Z,1006.84
2018-07-02T07:23:30.895Z,1006.78
2018-07-02T07:24:11.194Z,1006.75
2018-07-02T07:24:51.660Z,1006.72
2018-07-02T07:25:32.052Z,1006.7
2018-07-02T07:26:12.573Z,1006.7
2018-07-02T07:26:54.439Z,1006.7
2018-07-02T07:27:36.635Z,1006.69
2018-07-02T07:28:17.058Z,1006.66
2018-07-02T07:28:58.294Z,1006.7
2018-07-02T07:29:39.824Z,1006.68
2018-07-02T07:30:20.517Z,1006.77
2018-07-02T07:32:38.820Z,1006.67
2018-07-02T07:33:20.078Z,1006.67
2018-07-02T07:34:00.611Z,1006.65
2018-07-02T07:34:42.441Z,1006.67
2018-07-02T07:35:22.951Z,1006.7
2018-07-02T07:36:04.080Z,1006.7
2018-07-02T07:36:44.552Z,1006.68
2018-07-02T07:37:24.984Z,1006.62
2018-07-02T07:38:05.348Z,1006.67
2018-07-02T07:38:45.809Z,1006.66
2018-07-02T07:39:26.278Z,1006.69
2018-07-02T07:40:07.441Z,1006.68
2018-07-02T07:40:47.937Z,1006.67
2018-07-02T07:41:29.848Z,1006.65
2018-07-02T07:42:10.351Z,1006.63
2018-07-02T07:42:51.016Z,1006.62
2018-07-02T07:43:31.625Z,1006.64
2018-07-02T07:44:12.889Z,1006.64
2018-07-02T07:44:53.464Z,1006.61
2018-07-02T07:45:34.748Z,1006.6
2018-07-02T07:46:15.075Z,1006.58
2018-07-02T07:46:56.555Z,1006.64
2018-07-02T07:47:37.449Z,1006.64
2018-07-02T07:48:19.436Z,1006.62
2018-07-02T07:48:59.994Z,1006.69
2018-07-02T07:49:41.641Z,1006.64
2018-07-02T07:50:22.018Z,1006.67
2018-07-02T07:51:02.634Z,1006.7
2018-07-02T07:51:43.019Z,1006.64
2018-07-02T07:52:23.570Z,1006.66
2018-07-02T07:53:04.291Z,1006.72
2018-07-02T07:53:44.767Z,1006.64
2018-07-02T07:54:26.375Z,1006.68
2018-07-02T07:55:07.011Z,1006.71
2018-07-02T07:55:47.802Z,1006.69
2018-07-02T07:56:28.933Z,1006.71
2018-07-02T07:57:09.508Z,1006.73
2018-07-02T07:57:50.066Z,1006.67
2018-07-02T07:58:30.830Z,1006.71
2018-07-02T07:59:11.925Z,1006.8
2018-07-02T07:59:52.474Z,1006.73
2018-07-02T08:00:32.910Z,1006.72
2018-07-02T08:01:13.299Z,1006.71
2018-07-02T08:01:54.616Z,1006.7
2018-07-02T08:02:35.800Z,1006.68
2018-07-02T08:03:16.285Z,1006.71
2018-07-02T08:03:56.733Z,1006.75
2018-07-02T08:04:38.413Z,1006.72
2018-07-02T08:05:18.630Z,1006.69
2018-07-02T08:05:59.711Z,1006.69
2018-07-02T08:06:40.164Z,1006.71
2018-07-02T08:07:21.531Z,1006.69
2018-07-02T08:08:02.400Z,1006.7
2018-07-02T08:08:43.353Z,1006.69
2018-07-02T08:09:23.841Z,1006.72
2018-07-02T08:10:04.455Z,1006.74
2018-07-02T08:10:46.801Z,1006.77
2018-07-02T08:11:28.603Z,1006.74
2018-07-02T08:12:10.543Z,1006.69
2018-07-02T08:12:51.870Z,1006.7
2018-07-02T08:13:32.412Z,1006.76
2018-07-02T08:14:13.183Z,1006.76
2018-07-02T08:14:53.841Z,1006.71
2018-07-02T08:15:34.639Z,1006.75
2018-07-02T08:16:18.213Z,1006.75
2018-07-02T08:16:59.192Z,1006.78
2018-07-02T08:17:39.871Z,1006.77
2018-07-02T08:18:20.569Z,1006.7
2018-07-02T08:19:06.589Z,1006.72
2018-07-02T08:19:47.048Z,1006.75
2018-07-02T08:20:27.839Z,1006.7
2018-07-02T08:21:08.561Z,1006.74
2018-07-02T08:21:48.969Z,1006.71
2018-07-02T08:22:29.720Z,1006.65
2018-07-02T08:23:10.226Z,1006.67
2018-07-02T08:23:50.567Z,1006.73
2018-07-02T08:24:31.634Z,1006.78
2018-07-02T08:25:12.974Z,1006.81
2018-07-02T08:25:53.141Z,1006.77
2018-07-02T08:26:33.723Z,1006.74
2018-07-02T08:27:14.271Z,1006.77
2018-07-02T08:27:56.435Z,1006.74
2018-07-02T08:28:41.049Z,1006.81
2018-07-02T08:29:23.244Z,1006.81
2018-07-02T08:30:05.600Z,1006.74
2018-07-02T08:30:47.918Z,1006.76
2018-07-02T08:31:28.349Z,1006.74
2018-07-02T08:32:09.505Z,1006.75
2018-07-02T08:32:49.916Z,1006.75
2018-07-02T08:33:30.494Z,1006.73
2018-07-02T08:34:13.641Z,1006.8
2018-07-02T08:34:53.931Z,1006.73
2018-07-02T08:35:34.886Z,1006.78
2018-07-02T08:36:15.452Z,1006.74
2018-07-02T08:36:57.774Z,1006.74
2018-07-02T08:37:38.443Z,1006.74
2018-07-02T08:38:19.958Z,1006.75
2018-07-02T08:39:01.818Z,1006.7
2018-07-02T08:39:42.027Z,1006.72
2018-07-02T08:40:23.465Z,1006.7
2018-07-02T08:41:05.321Z,1006.71
2018-07-02T08:41:46.293Z,1006.77
2018-07-02T08:42:27.880Z,1006.7
2018-07-02T08:43:09.261Z,1006.64
2018-07-02T08:43:49.845Z,1006.71
2018-07-02T08:44:31.291Z,1006.74
2018-07-02T08:45:12.300Z,1006.68
2018-07-02T08:45:54.130Z,1006.76
2018-07-02T08:46:35.131Z,1006.71
2018-07-02T08:47:15.879Z,1006.68
2018-07-02T08:47:56.608Z,1006.68
2018-07-02T08:48:37.156Z,1006.69
2018-07-02T08:49:17.662Z,1006.67
2018-07-02T08:49:58.263Z,1006.68
2018-07-02T08:50:38.744Z,1006.67
2018-07-02T08:51:19.196Z,1006.67
2018-07-02T08:52:00.810Z,1006.64
2018-07-02T08:52:42.880Z,1006.66
2018-07-02T08:53:23.550Z,1006.6
2018-07-02T08:54:04.085Z,1006.69
2018-07-02T08:54:46.286Z,1006.68
2018-07-02T08:55:26.224Z,1006.68
2018-07-02T08:56:06.688Z,1006.66
2018-07-02T08:56:47.192Z,1006.67
2018-07-02T08:57:27.759Z,1006.69
2018-07-02T08:58:08.515Z,1006.68
2018-07-02T08:58:49.161Z,1006.62
2018-07-02T08:59:29.639Z,1006.63
2018-07-02T09:00:11.279Z,1006.63
2018-07-02T09:00:51.082Z,1006.66
2018-07-02T09:01:31.670Z,1006.64
2018-07-02T09:02:13.995Z,1006.61
2018-07-02T09:02:55.173Z,1006.62
2018-07-02T09:03:37.778Z,1006.61
2018-07-02T09:04:18.396Z,1006.6
2018-07-02T09:04:58.979Z,1006.56
2018-07-02T09:05:39.487Z,1006.68
2018-07-02T09:06:20.051Z,1006.61
2018-07-02T09:07:00.966Z,1006.72
2018-07-02T09:07:41.814Z,1006.65
2018-07-02T09:08:22.333Z,1006.65
2018-07-02T09:09:02.808Z,1006.71
2018-07-02T09:09:43.371Z,1006.83
2018-07-02T09:10:24.033Z,1006.74
2018-07-02T09:11:04.785Z,1006.69
2018-07-02T09:11:46.145Z,1006.76
2018-07-02T09:12:26.719Z,1006.72
2018-07-02T09:13:07.325Z,1006.71
2018-07-02T09:13:48.793Z,1006.73
2018-07-02T09:14:28.467Z,1006.69
2018-07-02T09:15:08.963Z,1006.64
2018-07-02T09:15:49.491Z,1006.62
2018-07-02T09:16:31.314Z,1006.71
2018-07-02T09:17:11.606Z,1006.66
2018-07-02T09:17:52.399Z,1006.65
2018-07-02T09:18:32.809Z,1006.68
2018-07-02T09:19:13.729Z,1006.64
2018-07-02T09:19:53.905Z,1006.71
2018-07-02T09:20:35.070Z,1006.68
2018-07-02T09:21:16.289Z,1006.59
2018-07-02T09:21:57.190Z,1006.71
2018-07-02T09:22:37.738Z,1006.7
2018-07-02T09:23:18.241Z,1006.63
2018-07-02T09:23:59.310Z,1006.66
2018-07-02T09:24:39.685Z,1006.64
2018-07-02T09:25:20.659Z,1006.68
2018-07-02T09:26:01.041Z,1006.66
2018-07-02T09:26:41.465Z,1006.69
2018-07-02T09:27:22.583Z,1006.65
2018-07-02T09:28:03.266Z,1006.63
2018-07-02T09:28:43.975Z,1006.68
2018-07-02T09:29:24.495Z,1006.68
2018-07-02T09:30:04.948Z,1006.66
2018-07-02T09:30:45.396Z,1006.65
2018-07-02T09:31:25.984Z,1006.65
2018-07-02T09:32:06.447Z,1006.65
2018-07-02T09:32:46.882Z,1006.69
2018-07-02T09:33:28.309Z,1006.68
2018-07-02T09:34:10.930Z,1006.63
2018-07-02T09:34:51.388Z,1006.61
2018-07-02T09:35:32.951Z,1006.6
2018-07-02T09:36:13.247Z,1006.57
2018-07-02T09:36:53.693Z,1006.57
2018-07-02T09:37:34.145Z,1006.56
2018-07-02T09:38:14.758Z,1006.59
2018-07-02T09:38:55.003Z,1006.59
2018-07-02T09:39:35.453Z,1006.58
2018-07-02T09:40:16.046Z,1006.58
2018-07-02T09:40:56.511Z,1006.57
2018-07-02T09:41:37.230Z,1006.66
2018-07-02T09:42:17.775Z,1006.63
2018-07-02T09:42:58.222Z,1006.59
2018-07-02T09:43:38.974Z,1006.63
2018-07-02T09:44:19.122Z,1006.55
2018-07-02T09:45:00.757Z,1006.68
2018-07-02T09:45:41.179Z,1006.67
2018-07-02T09:54:24.239Z,1006.55
2018-07-02T09:55:04.603Z,1006.55
2018-07-02T09:55:46.314Z,1006.6
2018-07-02T09:56:27.005Z,1006.56